Mount Carmel, TN (37645)

8:32 AM EDT on March 23, 2017 (GMT -0400)
Wallace Greear Estates | | Change Station
Active Advisory: Freeze Warning

Elev 1532 ft 36.54 °N, 82.69 °W | Updated 53 seconds ago

Clear
Clear
40.9 °F
Feels Like 38 °F
N
4.0
Wind Variable Wind from ENE
Gusts 0.0 mph

Today
High -- | Low -- °F
--% Chance of Precip.
Yesterday
High -- | Low -- °F
Precip. -- in
Pressure 30.40 in
Visibility 10.0 miles
Clouds Few 25000 ft
Windchill 38 °F
Dew Point 21 °F
Humidity 44%
Rainfall 0.00 in
Snow Depth Not available.
7:29 AM 7:45 PM
Waning Crescent, 23% visible
METAR KTRI 231153Z 00000KT 10SM FEW250 00/M07 A3041 RMK AO2 SLP293 T00001067 10022 21011 53018
Pressure 30.40 in
Visibility 10.0 miles
Clouds Few 25000 ft
Windchill 38 °F
Dew Point 21 °F
Humidity 44%
Rainfall 0.00 in
Snow Depth Not available.
7:29 AM 7:45 PM
Waning Crescent, 23% visible
METAR KTRI 231153Z 00000KT 10SM FEW250 00/M07 A3041 RMK AO2 SLP293 T00001067 10022 21011 53018

Get Your Daily Forecast Email!

Thanks for signing up!

Be on the lookout for a verification email in your inbox.

You'll start receiving severe weather alerts in your inbox..

×

10-Day Weather Forecast

Almanac

Astronomy

Mar. 23, 2017 Rise Set
Actual Time
Civil Twilight
Nautical Twilight
Astronomical Twilight
Moon
Length of Visible Light
Length of Day
Tomorrow will be .
, % of the Moon is Illuminated

Today's Extremes

State Highs State Lows

Community

WunderPhotos

Upload Photos

1,962,540 photos uploaded!

WunderBlog® & News

Nearby

Air Quality

  Air Quality AQ Index Pollutant
Not available.

Snow Depth

Station Depth Elevation

Earthquake Activity

City Distance Mag. Time & Date
Minimum magnitude displayed is 2.5.

Earthquake Activity

City Distance Mag. Time & Date
Minimum magnitude displayed is 2.5.

Coastal Water Temperatures

Place Temperature

Stations

Nearby Weather Stations

Station Location Temp. Windchill Dew Point Humidity Wind Precip. Elev Updated Type
                   

Watches & Warnings

Freeze Warning
Issued: 3:43 AM EDT Mar. 23, 2017 – National Weather Service

... Freeze warning remains in effect until 10 am EDT this
morning...

* event... temperatures will dip into the upper 20s to lower 30s in
some locations.

* Timing... pre-dawn hours into mid morning.

* Impacts... sensitive vegetation that is left unprotected may be
damaged or killed.

Precautionary/preparedness actions...

A freeze warning means sub-freezing temperatures are occurring or
are highly likely. These conditions will kill or significantly
damage crops and other sensitive vegetation that are left
unprotected.